sensor_id;sensor_type;location;lat;lon;timestamp;temperature;humidity
11961;DHT22;6040;49.358;11.140;2023-07-22T00:01:33;14.50;99.90
11961;DHT22;6040;49.358;11.140;2023-07-22T00:04:00;14.50;99.90
11961;DHT22;6040;49.358;11.140;2023-07-22T00:06:26;14.50;99.90
11961;DHT22;6040;49.358;11.140;2023-07-22T00:08:53;14.50;99.90
11961;DHT22;6040;49.358;11.140;2023-07-22T00:11:21;14.50;99.90
11961;DHT22;6040;49.358;11.140;2023-07-22T00:13:48;14.40;99.90
11961;DHT22;6040;49.358;11.140;2023-07-22T00:16:15;14.40;99.90
11961;DHT22;6040;49.358;11.140;2023-07-22T00:18:42;14.40;99.90
11961;DHT22;6040;49.358;11.140;2023-07-22T00:21:08;14.30;99.90
11961;DHT22;6040;49.358;11.140;2023-07-22T00:23:36;14.20;99.90
11961;DHT22;6040;49.358;11.140;2023-07-22T00:26:03;14.20;99.90
11961;DHT22;6040;49.358;11.140;2023-07-22T00:28:31;15.20;99.90
11961;DHT22;6040;49.358;11.140;2023-07-22T00:30:57;14.20;99.90
11961;DHT22;6040;49.358;11.140;2023-07-22T00:33:25;14.20;99.90
11961;DHT22;6040;49.358;11.140;2023-07-22T00:35:52;14.10;99.90
11961;DHT22;6040;49.358;11.140;2023-07-22T00:38:19;14.10;99.90
11961;DHT22;6040;49.358;11.140;2023-07-22T00:40:46;14.10;99.90
11961;DHT22;6040;49.358;11.140;2023-07-22T00:43:13;14.10;99.90
11961;DHT22;6040;49.358;11.140;2023-07-22T00:45:41;14.00;99.90
11961;DHT22;6040;49.358;11.140;2023-07-22T00:48:08;14.10;99.90
11961;DHT22;6040;49.358;11.140;2023-07-22T00:50:36;13.90;99.90
11961;DHT22;6040;49.358;11.140;2023-07-22T00:53:03;13.90;99.90
11961;DHT22;6040;49.358;11.140;2023-07-22T00:55:33;13.90;99.90
11961;DHT22;6040;49.358;11.140;2023-07-22T00:57:59;13.80;99.90
11961;DHT22;6040;49.358;11.140;2023-07-22T01:00:26;13.70;99.90
11961;DHT22;6040;49.358;11.140;2023-07-22T01:02:54;15.00;99.90
11961;DHT22;6040;49.358;11.140;2023-07-22T01:05:21;13.70;99.90
11961;DHT22;6040;49.358;11.140;2023-07-22T01:07:48;13.60;99.90
11961;DHT22;6040;49.358;11.140;2023-07-22T01:10:15;13.60;99.90
11961;DHT22;6040;49.358;11.140;2023-07-22T01:12:43;13.50;99.90
11961;DHT22;6040;49.358;11.140;2023-07-22T01:15:10;14.20;99.90
11961;DHT22;6040;49.358;11.140;2023-07-22T01:17:37;13.50;99.90
11961;DHT22;6040;49.358;11.140;2023-07-22T01:20:07;14.90;99.90
11961;DHT22;6040;49.358;11.140;2023-07-22T01:22:36;13.50;99.90
11961;DHT22;6040;49.358;11.140;2023-07-22T01:25:05;13.50;99.90
11961;DHT22;6040;49.358;11.140;2023-07-22T01:27:32;13.40;99.90
11961;DHT22;6040;49.358;11.140;2023-07-22T01:29:59;13.40;99.90
11961;DHT22;6040;49.358;11.140;2023-07-22T01:32:28;13.40;99.90
11961;DHT22;6040;49.358;11.140;2023-07-22T01:34:54;15.20;99.90
11961;DHT22;6040;49.358;11.140;2023-07-22T01:37:21;13.30;99.90
11961;DHT22;6040;49.358;11.140;2023-07-22T01:39:48;14.30;99.90
11961;DHT22;6040;49.358;11.140;2023-07-22T01:42:17;13.30;99.90
11961;DHT22;6040;49.358;11.140;2023-07-22T01:44:44;13.30;99.90
11961;DHT22;6040;49.358;11.140;2023-07-22T01:47:11;13.20;99.90
11961;DHT22;6040;49.358;11.140;2023-07-22T01:49:37;13.20;99.90
11961;DHT22;6040;49.358;11.140;2023-07-22T01:52:05;13.20;99.90
11961;DHT22;6040;49.358;11.140;2023-07-22T01:54:32;13.10;99.90
11961;DHT22;6040;49.358;11.140;2023-07-22T01:56:58;13.20;99.90
11961;DHT22;6040;49.358;11.140;2023-07-22T01:59:27;13.10;99.90
11961;DHT22;6040;49.358;11.140;2023-07-22T02:01:54;13.10;99.90
11961;DHT22;6040;49.358;11.140;2023-07-22T02:04:20;13.00;99.90
11961;DHT22;6040;49.358;11.140;2023-07-22T02:06:47;13.00;99.90
11961;DHT22;6040;49.358;11.140;2023-07-22T02:09:14;13.00;99.90
11961;DHT22;6040;49.358;11.140;2023-07-22T02:11:41;13.50;99.90
11961;DHT22;6040;49.358;11.140;2023-07-22T02:14:08;12.80;99.90
11961;DHT22;6040;49.358;11.140;2023-07-22T02:16:36;12.80;99.90
11961;DHT22;6040;49.358;11.140;2023-07-22T02:19:03;12.80;99.90
11961;DHT22;6040;49.358;11.140;2023-07-22T02:21:30;12.80;99.90
11961;DHT22;6040;49.358;11.140;2023-07-22T02:23:57;12.80;99.90
11961;DHT22;6040;49.358;11.140;2023-07-22T02:26:24;12.80;99.90
11961;DHT22;6040;49.358;11.140;2023-07-22T02:28:51;12.70;99.90
11961;DHT22;6040;49.358;11.140;2023-07-22T02:31:17;12.70;99.90
11961;DHT22;6040;49.358;11.140;2023-07-22T02:33:45;12.70;99.90
11961;DHT22;6040;49.358;11.140;2023-07-22T02:36:13;12.60;99.90
11961;DHT22;6040;49.358;11.140;2023-07-22T02:38:40;12.60;99.90
11961;DHT22;6040;49.358;11.140;2023-07-22T02:41:07;12.80;99.90
11961;DHT22;6040;49.358;11.140;2023-07-22T02:43:34;12.50;99.90
11961;DHT22;6040;49.358;11.140;2023-07-22T02:46:02;12.60;99.90
11961;DHT22;6040;49.358;11.140;2023-07-22T02:48:29;12.90;99.90
11961;DHT22;6040;49.358;11.140;2023-07-22T02:51:03;12.40;99.90
11961;DHT22;6040;49.358;11.140;2023-07-22T02:53:30;12.40;99.90
11961;DHT22;6040;49.358;11.140;2023-07-22T02:55:57;12.40;99.90
11961;DHT22;6040;49.358;11.140;2023-07-22T02:58:24;12.30;99.90
11961;DHT22;6040;49.358;11.140;2023-07-22T03:00:51;13.00;99.90
11961;DHT22;6040;49.358;11.140;2023-07-22T03:03:18;12.30;99.90
11961;DHT22;6040;49.358;11.140;2023-07-22T03:05:45;12.30;99.90
11961;DHT22;6040;49.358;11.140;2023-07-22T03:08:14;12.20;99.90
11961;DHT22;6040;49.358;11.140;2023-07-22T03:10:41;12.20;99.90
11961;DHT22;6040;49.358;11.140;2023-07-22T03:13:09;12.20;99.90
11961;DHT22;6040;49.358;11.140;2023-07-22T03:15:36;12.20;99.90
11961;DHT22;6040;49.358;11.140;2023-07-22T03:18:03;12.20;99.90
11961;DHT22;6040;49.358;11.140;2023-07-22T03:20:30;12.20;99.90
11961;DHT22;6040;49.358;11.140;2023-07-22T03:22:57;12.20;99.90
11961;DHT22;6040;49.358;11.140;2023-07-22T03:25:26;12.20;99.90
11961;DHT22;6040;49.358;11.140;2023-07-22T03:27:52;12.20;99.90
11961;DHT22;6040;49.358;11.140;2023-07-22T03:30:22;12.20;99.90
11961;DHT22;6040;49.358;11.140;2023-07-22T03:32:49;12.10;99.90
11961;DHT22;6040;49.358;11.140;2023-07-22T03:35:17;12.10;99.90
11961;DHT22;6040;49.358;11.140;2023-07-22T03:37:43;11.90;99.90
11961;DHT22;6040;49.358;11.140;2023-07-22T03:40:11;11.90;99.90
11961;DHT22;6040;49.358;11.140;2023-07-22T03:42:46;11.90;99.90
11961;DHT22;6040;49.358;11.140;2023-07-22T03:45:13;12.00;99.90
11961;DHT22;6040;49.358;11.140;2023-07-22T03:47:40;11.90;99.90
11961;DHT22;6040;49.358;11.140;2023-07-22T03:50:07;12.00;99.90
11961;DHT22;6040;49.358;11.140;2023-07-22T03:52:34;11.90;99.90
11961;DHT22;6040;49.358;11.140;2023-07-22T03:55:01;11.90;99.90
11961;DHT22;6040;49.358;11.140;2023-07-22T03:57:28;11.90;99.90
11961;DHT22;6040;49.358;11.140;2023-07-22T03:59:57;11.90;99.90
11961;DHT22;6040;49.358;11.140;2023-07-22T04:02:24;11.90;99.90
11961;DHT22;6040;49.358;11.140;2023-07-22T04:04:53;11.90;99.90
11961;DHT22;6040;49.358;11.140;2023-07-22T04:07:20;12.40;99.90
11961;DHT22;6040;49.358;11.140;2023-07-22T04:09:47;12.20;99.90
11961;DHT22;6040;49.358;11.140;2023-07-22T04:14:41;12.00;99.90
11961;DHT22;6040;49.358;11.140;2023-07-22T04:17:10;12.00;99.90
11961;DHT22;6040;49.358;11.140;2023-07-22T04:19:36;13.50;99.90
11961;DHT22;6040;49.358;11.140;2023-07-22T04:22:04;13.60;99.90
11961;DHT22;6040;49.358;11.140;2023-07-22T04:24:32;12.10;99.90
11961;DHT22;6040;49.358;11.140;2023-07-22T04:26:59;12.50;99.90
11961;DHT22;6040;49.358;11.140;2023-07-22T04:29:26;12.10;99.90
11961;DHT22;6040;49.358;11.140;2023-07-22T04:31:57;12.10;99.90
11961;DHT22;6040;49.358;11.140;2023-07-22T04:34:28;13.60;99.90
11961;DHT22;6040;49.358;11.140;2023-07-22T04:36:55;12.20;99.90
11961;DHT22;6040;49.358;11.140;2023-07-22T04:39:23;12.20;99.90
11961;DHT22;6040;49.358;11.140;2023-07-22T04:41:49;12.20;99.90
11961;DHT22;6040;49.358;11.140;2023-07-22T04:44:17;12.30;99.90
11961;DHT22;6040;49.358;11.140;2023-07-22T04:46:44;12.30;99.90
11961;DHT22;6040;49.358;11.140;2023-07-22T04:49:11;13.70;99.90
11961;DHT22;6040;49.358;11.140;2023-07-22T04:51:39;12.40;99.90
11961;DHT22;6040;49.358;11.140;2023-07-22T04:54:06;12.40;99.90
11961;DHT22;6040;49.358;11.140;2023-07-22T04:56:33;12.60;99.90
11961;DHT22;6040;49.358;11.140;2023-07-22T04:59:00;12.70;99.90
11961;DHT22;6040;49.358;11.140;2023-07-22T05:01:26;12.90;99.90
11961;DHT22;6040;49.358;11.140;2023-07-22T05:03:53;13.00;99.90
11961;DHT22;6040;49.358;11.140;2023-07-22T05:06:21;13.20;99.90
11961;DHT22;6040;49.358;11.140;2023-07-22T05:08:50;13.20;99.90
11961;DHT22;6040;49.358;11.140;2023-07-22T05:11:17;13.30;99.90
11961;DHT22;6040;49.358;11.140;2023-07-22T05:13:44;13.30;99.90
11961;DHT22;6040;49.358;11.140;2023-07-22T05:16:11;13.30;99.90
11961;DHT22;6040;49.358;11.140;2023-07-22T05:18:37;14.50;99.90
11961;DHT22;6040;49.358;11.140;2023-07-22T05:21:04;13.30;99.90
11961;DHT22;6040;49.358;11.140;2023-07-22T05:23:32;13.20;99.90
11961;DHT22;6040;49.358;11.140;2023-07-22T05:26:00;13.40;99.90
11961;DHT22;6040;49.358;11.140;2023-07-22T05:28:26;13.50;99.90
11961;DHT22;6040;49.358;11.140;2023-07-22T05:30:55;13.60;99.90
11961;DHT22;6040;49.358;11.140;2023-07-22T05:33:22;13.80;99.90
11961;DHT22;6040;49.358;11.140;2023-07-22T05:35:49;14.00;99.90
11961;DHT22;6040;49.358;11.140;2023-07-22T05:38:16;14.70;99.90
11961;DHT22;6040;49.358;11.140;2023-07-22T05:40:43;15.40;99.90
11961;DHT22;6040;49.358;11.140;2023-07-22T05:43:12;15.60;99.90
11961;DHT22;6040;49.358;11.140;2023-07-22T05:45:39;15.60;99.90
11961;DHT22;6040;49.358;11.140;2023-07-22T05:48:06;15.50;99.90
11961;DHT22;6040;49.358;11.140;2023-07-22T05:50:32;15.10;99.90
11961;DHT22;6040;49.358;11.140;2023-07-22T05:52:59;14.90;99.90
11961;DHT22;6040;49.358;11.140;2023-07-22T05:55:26;15.30;99.90
11961;DHT22;6040;49.358;11.140;2023-07-22T05:57:53;15.60;99.90
11961;DHT22;6040;49.358;11.140;2023-07-22T06:00:21;15.80;99.90
11961;DHT22;6040;49.358;11.140;2023-07-22T06:02:48;16.10;99.90
11961;DHT22;6040;49.358;11.140;2023-07-22T06:05:15;17.00;99.90
11961;DHT22;6040;49.358;11.140;2023-07-22T06:07:42;17.70;99.90
11961;DHT22;6040;49.358;11.140;2023-07-22T06:10:10;18.00;99.90
11961;DHT22;6040;49.358;11.140;2023-07-22T06:12:36;18.10;99.90
11961;DHT22;6040;49.358;11.140;2023-07-22T06:15:04;17.90;99.90
11961;DHT22;6040;49.358;11.140;2023-07-22T06:17:33;18.00;99.90
11961;DHT22;6040;49.358;11.140;2023-07-22T06:20:00;17.70;99.90
11961;DHT22;6040;49.358;11.140;2023-07-22T06:22:26;17.40;99.90
11961;DHT22;6040;49.358;11.140;2023-07-22T06:24:53;17.20;99.90
11961;DHT22;6040;49.358;11.140;2023-07-22T06:27:20;17.30;99.90
11961;DHT22;6040;49.358;11.140;2023-07-22T06:29:47;17.10;99.90
11961;DHT22;6040;49.358;11.140;2023-07-22T06:32:14;17.10;99.90
11961;DHT22;6040;49.358;11.140;2023-07-22T06:34:42;17.00;99.90
11961;DHT22;6040;49.358;11.140;2023-07-22T06:37:09;16.90;99.90
11961;DHT22;6040;49.358;11.140;2023-07-22T06:39:36;17.00;99.90
11961;DHT22;6040;49.358;11.140;2023-07-22T06:42:03;17.20;99.90
11961;DHT22;6040;49.358;11.140;2023-07-22T06:44:30;17.50;99.90
11961;DHT22;6040;49.358;11.140;2023-07-22T06:46:56;17.70;99.90
11961;DHT22;6040;49.358;11.140;2023-07-22T06:49:23;17.90;99.90
11961;DHT22;6040;49.358;11.140;2023-07-22T06:51:51;18.20;99.90
11961;DHT22;6040;49.358;11.140;2023-07-22T06:54:18;18.60;99.90
11961;DHT22;6040;49.358;11.140;2023-07-22T06:56:45;18.80;99.90
11961;DHT22;6040;49.358;11.140;2023-07-22T06:59:12;18.90;99.90
11961;DHT22;6040;49.358;11.140;2023-07-22T07:01:39;19.00;99.90
11961;DHT22;6040;49.358;11.140;2023-07-22T07:04:06;19.10;99.90
11961;DHT22;6040;49.358;11.140;2023-07-22T07:06:33;19.50;99.90
11961;DHT22;6040;49.358;11.140;2023-07-22T07:09:01;19.50;99.90
11961;DHT22;6040;49.358;11.140;2023-07-22T07:11:28;19.40;99.90
11961;DHT22;6040;49.358;11.140;2023-07-22T07:13:55;19.20;99.90
11961;DHT22;6040;49.358;11.140;2023-07-22T07:16:23;19.30;99.90
11961;DHT22;6040;49.358;11.140;2023-07-22T07:18:51;19.70;99.90
11961;DHT22;6040;49.358;11.140;2023-07-22T07:21:18;19.90;99.90
11961;DHT22;6040;49.358;11.140;2023-07-22T07:23:45;20.60;99.90
11961;DHT22;6040;49.358;11.140;2023-07-22T07:26:13;20.70;99.90
11961;DHT22;6040;49.358;11.140;2023-07-22T07:28:40;20.90;99.90
11961;DHT22;6040;49.358;11.140;2023-07-22T07:31:07;21.10;99.80
11961;DHT22;6040;49.358;11.140;2023-07-22T07:33:34;21.20;98.60
11961;DHT22;6040;49.358;11.140;2023-07-22T07:36:01;21.50;97.40
11961;DHT22;6040;49.358;11.140;2023-07-22T07:38:28;21.40;97.30
11961;DHT22;6040;49.358;11.140;2023-07-22T07:40:57;21.50;96.40
11961;DHT22;6040;49.358;11.140;2023-07-22T07:43:26;21.70;96.20
11961;DHT22;6040;49.358;11.140;2023-07-22T07:46:15;21.90;95.90
11961;DHT22;6040;49.358;11.140;2023-07-22T07:48:43;21.90;93.90
11961;DHT22;6040;49.358;11.140;2023-07-22T07:51:12;21.50;94.60
11961;DHT22;6040;49.358;11.140;2023-07-22T07:53:38;21.60;95.40
11961;DHT22;6040;49.358;11.140;2023-07-22T07:56:06;21.90;95.70
11961;DHT22;6040;49.358;11.140;2023-07-22T07:58:35;22.30;94.20
11961;DHT22;6040;49.358;11.140;2023-07-22T08:01:02;22.30;94.00
11961;DHT22;6040;49.358;11.140;2023-07-22T08:03:28;23.10;95.30
11961;DHT22;6040;49.358;11.140;2023-07-22T08:05:55;23.20;92.60
11961;DHT22;6040;49.358;11.140;2023-07-22T08:08:22;22.80;92.40
11961;DHT22;6040;49.358;11.140;2023-07-22T08:10:58;22.70;92.10
11961;DHT22;6040;49.358;11.140;2023-07-22T08:13:25;23.10;92.90
11961;DHT22;6040;49.358;11.140;2023-07-22T08:15:53;23.20;91.70
11961;DHT22;6040;49.358;11.140;2023-07-22T08:18:20;23.50;92.20
11961;DHT22;6040;49.358;11.140;2023-07-22T08:20:47;23.30;91.80
11961;DHT22;6040;49.358;11.140;2023-07-22T08:23:14;23.50;92.00
11961;DHT22;6040;49.358;11.140;2023-07-22T08:25:40;23.80;91.00
11961;DHT22;6040;49.358;11.140;2023-07-22T08:28:07;23.50;88.10
11961;DHT22;6040;49.358;11.140;2023-07-22T08:30:34;23.40;90.90
11961;DHT22;6040;49.358;11.140;2023-07-22T08:33:03;23.50;90.20
11961;DHT22;6040;49.358;11.140;2023-07-22T08:35:29;24.00;90.30
11961;DHT22;6040;49.358;11.140;2023-07-22T08:37:56;24.20;86.10
11961;DHT22;6040;49.358;11.140;2023-07-22T08:40:23;24.00;87.60
11961;DHT22;6040;49.358;11.140;2023-07-22T08:42:50;24.20;89.90
11961;DHT22;6040;49.358;11.140;2023-07-22T08:45:17;24.30;86.90
11961;DHT22;6040;49.358;11.140;2023-07-22T08:47:47;23.60;87.70
11961;DHT22;6040;49.358;11.140;2023-07-22T08:50:20;23.80;88.50
11961;DHT22;6040;49.358;11.140;2023-07-22T08:52:49;24.20;89.90
11961;DHT22;6040;49.358;11.140;2023-07-22T08:55:16;24.60;89.10
11961;DHT22;6040;49.358;11.140;2023-07-22T08:57:45;25.00;88.80
11961;DHT22;6040;49.358;11.140;2023-07-22T09:00:13;25.30;86.30
11961;DHT22;6040;49.358;11.140;2023-07-22T09:02:41;25.40;86.20
11961;DHT22;6040;49.358;11.140;2023-07-22T09:05:09;25.30;86.50
11961;DHT22;6040;49.358;11.140;2023-07-22T09:07:38;25.30;81.90
11961;DHT22;6040;49.358;11.140;2023-07-22T09:10:07;24.70;83.30
11961;DHT22;6040;49.358;11.140;2023-07-22T09:12:35;24.60;87.10
11961;DHT22;6040;49.358;11.140;2023-07-22T09:15:08;24.80;87.70
11961;DHT22;6040;49.358;11.140;2023-07-22T09:17:36;24.70;84.40
11961;DHT22;6040;49.358;11.140;2023-07-22T09:20:04;24.70;82.10
11961;DHT22;6040;49.358;11.140;2023-07-22T09:22:32;24.30;83.50
11961;DHT22;6040;49.358;11.140;2023-07-22T09:25:14;24.50;85.90
11961;DHT22;6040;49.358;11.140;2023-07-22T09:27:41;24.60;84.10
11961;DHT22;6040;49.358;11.140;2023-07-22T09:30:24;24.90;87.00
11961;DHT22;6040;49.358;11.140;2023-07-22T09:32:52;24.70;86.40
11961;DHT22;6040;49.358;11.140;2023-07-22T09:35:20;25.40;86.80
11961;DHT22;6040;49.358;11.140;2023-07-22T09:37:47;25.80;83.80
11961;DHT22;6040;49.358;11.140;2023-07-22T09:40:17;26.00;82.60
11961;DHT22;6040;49.358;11.140;2023-07-22T09:42:49;26.40;82.30
11961;DHT22;6040;49.358;11.140;2023-07-22T09:45:16;26.70;81.40
11961;DHT22;6040;49.358;11.140;2023-07-22T09:47:44;26.70;78.70
11961;DHT22;6040;49.358;11.140;2023-07-22T09:50:15;26.80;80.90
11961;DHT22;6040;49.358;11.140;2023-07-22T09:52:45;26.50;77.40
11961;DHT22;6040;49.358;11.140;2023-07-22T09:55:16;26.20;78.70
11961;DHT22;6040;49.358;11.140;2023-07-22T09:57:45;25.90;79.40
11961;DHT22;6040;49.358;11.140;2023-07-22T10:00:13;25.50;79.60
11961;DHT22;6040;49.358;11.140;2023-07-22T10:02:42;25.40;82.50
11961;DHT22;6040;49.358;11.140;2023-07-22T10:05:12;25.10;80.90
11961;DHT22;6040;49.358;11.140;2023-07-22T10:07:45;24.80;82.20
11961;DHT22;6040;49.358;11.140;2023-07-22T10:10:15;24.50;84.10
11961;DHT22;6040;49.358;11.140;2023-07-22T10:12:43;24.40;83.30
11961;DHT22;6040;49.358;11.140;2023-07-22T10:15:11;24.30;84.80
11961;DHT22;6040;49.358;11.140;2023-07-22T10:17:39;23.80;85.10
11961;DHT22;6040;49.358;11.140;2023-07-22T10:20:07;23.50;85.40
11961;DHT22;6040;49.358;11.140;2023-07-22T10:22:42;23.40;87.00
11961;DHT22;6040;49.358;11.140;2023-07-22T10:25:11;23.30;86.40
11961;DHT22;6040;49.358;11.140;2023-07-22T10:27:38;23.40;87.50
11961;DHT22;6040;49.358;11.140;2023-07-22T10:30:09;23.50;88.00
11961;DHT22;6040;49.358;11.140;2023-07-22T10:32:37;23.70;86.50
11961;DHT22;6040;49.358;11.140;2023-07-22T10:35:08;23.80;86.50
11961;DHT22;6040;49.358;11.140;2023-07-22T10:37:36;24.00;87.30
11961;DHT22;6040;49.358;11.140;2023-07-22T10:40:25;24.00;86.00
11961;DHT22;6040;49.358;11.140;2023-07-22T10:42:54;23.90;86.50
11961;DHT22;6040;49.358;11.140;2023-07-22T10:45:26;23.60;86.70
11961;DHT22;6040;49.358;11.140;2023-07-22T10:48:06;23.50;87.50
11961;DHT22;6040;49.358;11.140;2023-07-22T10:50:40;23.40;87.80
11961;DHT22;6040;49.358;11.140;2023-07-22T10:53:10;23.40;87.80
11961;DHT22;6040;49.358;11.140;2023-07-22T10:56:04;23.40;89.20
11961;DHT22;6040;49.358;11.140;2023-07-22T10:58:31;23.50;88.30
11961;DHT22;6040;49.358;11.140;2023-07-22T11:01:24;23.50;87.20
11961;DHT22;6040;49.358;11.140;2023-07-22T11:04:13;23.50;86.30
11961;DHT22;6040;49.358;11.140;2023-07-22T11:06:52;23.30;85.60
11961;DHT22;6040;49.358;11.140;2023-07-22T11:09:38;23.20;87.90
11961;DHT22;6040;49.358;11.140;2023-07-22T11:12:08;23.20;86.20
11961;DHT22;6040;49.358;11.140;2023-07-22T11:14:39;23.40;90.30
11961;DHT22;6040;49.358;11.140;2023-07-22T11:17:08;23.70;88.80
11961;DHT22;6040;49.358;11.140;2023-07-22T11:19:37;24.10;86.10
11961;DHT22;6040;49.358;11.140;2023-07-22T11:22:04;24.30;85.70
11961;DHT22;6040;49.358;11.140;2023-07-22T11:24:33;24.60;84.30
11961;DHT22;6040;49.358;11.140;2023-07-22T11:27:03;25.00;88.40
11961;DHT22;6040;49.358;11.140;2023-07-22T11:29:30;25.40;82.50
11961;DHT22;6040;49.358;11.140;2023-07-22T11:31:58;25.60;83.50
11961;DHT22;6040;49.358;11.140;2023-07-22T11:34:26;25.80;83.80
11961;DHT22;6040;49.358;11.140;2023-07-22T11:36:54;25.90;82.00
11961;DHT22;6040;49.358;11.140;2023-07-22T11:39:23;25.60;81.90
11961;DHT22;6040;49.358;11.140;2023-07-22T11:41:51;25.80;84.10
11961;DHT22;6040;49.358;11.140;2023-07-22T11:44:19;26.00;82.90
11961;DHT22;6040;49.358;11.140;2023-07-22T11:46:50;26.20;82.70
11961;DHT22;6040;49.358;11.140;2023-07-22T11:49:25;26.30;82.50
11961;DHT22;6040;49.358;11.140;2023-07-22T11:51:55;26.30;81.80
11961;DHT22;6040;49.358;11.140;2023-07-22T11:54:22;26.50;82.60
11961;DHT22;6040;49.358;11.140;2023-07-22T11:56:49;26.30;79.80
11961;DHT22;6040;49.358;11.140;2023-07-22T11:59:16;26.60;79.60
11961;DHT22;6040;49.358;11.140;2023-07-22T12:01:44;27.00;79.70
11961;DHT22;6040;49.358;11.140;2023-07-22T12:04:12;27.10;79.90
11961;DHT22;6040;49.358;11.140;2023-07-22T12:06:41;27.30;78.70
11961;DHT22;6040;49.358;11.140;2023-07-22T12:09:09;27.00;79.30
11961;DHT22;6040;49.358;11.140;2023-07-22T12:11:36;27.00;78.80
11961;DHT22;6040;49.358;11.140;2023-07-22T12:14:11;26.90;78.40
11961;DHT22;6040;49.358;11.140;2023-07-22T12:16:39;26.80;79.30
11961;DHT22;6040;49.358;11.140;2023-07-22T12:19:07;26.90;77.80
11961;DHT22;6040;49.358;11.140;2023-07-22T12:21:34;26.70;78.90
11961;DHT22;6040;49.358;11.140;2023-07-22T12:24:03;27.20;81.50
11961;DHT22;6040;49.358;11.140;2023-07-22T12:26:30;27.40;77.30
11961;DHT22;6040;49.358;11.140;2023-07-22T12:28:57;27.60;76.30
11961;DHT22;6040;49.358;11.140;2023-07-22T12:31:25;27.40;77.20
11961;DHT22;6040;49.358;11.140;2023-07-22T12:33:51;26.90;76.10
11961;DHT22;6040;49.358;11.140;2023-07-22T12:36:18;26.60;79.50
11961;DHT22;6040;49.358;11.140;2023-07-22T12:38:45;26.30;79.80
11961;DHT22;6040;49.358;11.140;2023-07-22T12:41:13;26.10;78.80
11961;DHT22;6040;49.358;11.140;2023-07-22T12:43:40;26.00;79.50
11961;DHT22;6040;49.358;11.140;2023-07-22T12:46:07;26.10;79.60
11961;DHT22;6040;49.358;11.140;2023-07-22T12:48:34;26.40;80.00
11961;DHT22;6040;49.358;11.140;2023-07-22T12:51:01;26.60;77.00
11961;DHT22;6040;49.358;11.140;2023-07-22T12:53:28;26.80;79.60
11961;DHT22;6040;49.358;11.140;2023-07-22T12:55:55;26.80;78.40
11961;DHT22;6040;49.358;11.140;2023-07-22T12:58:23;26.70;77.50
11961;DHT22;6040;49.358;11.140;2023-07-22T13:00:49;26.80;80.60
11961;DHT22;6040;49.358;11.140;2023-07-22T13:03:16;27.10;79.10
11961;DHT22;6040;49.358;11.140;2023-07-22T13:05:43;27.10;77.50
11961;DHT22;6040;49.358;11.140;2023-07-22T13:08:10;27.00;77.10
11961;DHT22;6040;49.358;11.140;2023-07-22T13:10:37;26.60;75.30
11961;DHT22;6040;49.358;11.140;2023-07-22T13:13:05;26.20;75.40
11961;DHT22;6040;49.358;11.140;2023-07-22T13:15:33;25.80;73.80
11961;DHT22;6040;49.358;11.140;2023-07-22T13:18:00;25.60;75.60
11961;DHT22;6040;49.358;11.140;2023-07-22T13:20:28;25.40;77.40
11961;DHT22;6040;49.358;11.140;2023-07-22T13:22:55;25.50;78.80
11961;DHT22;6040;49.358;11.140;2023-07-22T13:25:22;25.40;77.40
11961;DHT22;6040;49.358;11.140;2023-07-22T13:27:48;25.50;76.80
11961;DHT22;6040;49.358;11.140;2023-07-22T13:30:15;25.50;75.60
11961;DHT22;6040;49.358;11.140;2023-07-22T13:32:45;25.80;76.50
11961;DHT22;6040;49.358;11.140;2023-07-22T13:35:12;26.00;73.20
11961;DHT22;6040;49.358;11.140;2023-07-22T13:37:39;26.20;75.10
11961;DHT22;6040;49.358;11.140;2023-07-22T13:40:06;25.70;74.80
11961;DHT22;6040;49.358;11.140;2023-07-22T13:42:36;26.30;74.20
11961;DHT22;6040;49.358;11.140;2023-07-22T13:45:04;26.20;75.50
11961;DHT22;6040;49.358;11.140;2023-07-22T13:47:31;26.10;76.20
11961;DHT22;6040;49.358;11.140;2023-07-22T13:49:59;26.10;73.90
11961;DHT22;6040;49.358;11.140;2023-07-22T13:52:26;26.10;75.10
11961;DHT22;6040;49.358;11.140;2023-07-22T13:54:53;26.00;75.50
11961;DHT22;6040;49.358;11.140;2023-07-22T13:57:19;26.10;72.10
11961;DHT22;6040;49.358;11.140;2023-07-22T13:59:46;25.90;72.20
11961;DHT22;6040;49.358;11.140;2023-07-22T14:02:13;25.80;74.80
11961;DHT22;6040;49.358;11.140;2023-07-22T14:04:40;25.80;74.80
11961;DHT22;6040;49.358;11.140;2023-07-22T14:07:08;25.80;74.60
11961;DHT22;6040;49.358;11.140;2023-07-22T14:09:35;25.80;73.20
11961;DHT22;6040;49.358;11.140;2023-07-22T14:12:02;25.70;74.00
11961;DHT22;6040;49.358;11.140;2023-07-22T14:14:29;26.00;73.60
11961;DHT22;6040;49.358;11.140;2023-07-22T14:16:56;26.20;70.40
11961;DHT22;6040;49.358;11.140;2023-07-22T14:19:24;25.90;70.10
11961;DHT22;6040;49.358;11.140;2023-07-22T14:21:50;25.70;72.50
11961;DHT22;6040;49.358;11.140;2023-07-22T14:24:19;25.50;73.50
11961;DHT22;6040;49.358;11.140;2023-07-22T14:26:45;25.30;73.80
11961;DHT22;6040;49.358;11.140;2023-07-22T14:29:13;25.30;74.40
11961;DHT22;6040;49.358;11.140;2023-07-22T14:31:42;25.30;74.10
11961;DHT22;6040;49.358;11.140;2023-07-22T14:34:08;25.30;74.70
11961;DHT22;6040;49.358;11.140;2023-07-22T14:36:34;25.40;74.00
11961;DHT22;6040;49.358;11.140;2023-07-22T14:39:01;25.40;74.60
11961;DHT22;6040;49.358;11.140;2023-07-22T14:41:30;25.60;75.10
11961;DHT22;6040;49.358;11.140;2023-07-22T14:43:57;25.70;74.30
11961;DHT22;6040;49.358;11.140;2023-07-22T14:46:24;25.80;74.50
11961;DHT22;6040;49.358;11.140;2023-07-22T14:48:51;26.00;74.00
11961;DHT22;6040;49.358;11.140;2023-07-22T14:51:17;26.10;72.10
11961;DHT22;6040;49.358;11.140;2023-07-22T14:53:44;26.10;73.40
11961;DHT22;6040;49.358;11.140;2023-07-22T14:56:11;26.30;72.90
11961;DHT22;6040;49.358;11.140;2023-07-22T14:58:39;26.30;72.80
11961;DHT22;6040;49.358;11.140;2023-07-22T15:01:07;26.40;73.10
11961;DHT22;6040;49.358;11.140;2023-07-22T15:03:34;26.30;71.00
11961;DHT22;6040;49.358;11.140;2023-07-22T15:06:01;26.60;70.70
11961;DHT22;6040;49.358;11.140;2023-07-22T15:08:28;26.80;70.60
11961;DHT22;6040;49.358;11.140;2023-07-22T15:10:54;26.70;70.10
11961;DHT22;6040;49.358;11.140;2023-07-22T15:13:22;26.60;69.70
11961;DHT22;6040;49.358;11.140;2023-07-22T15:15:52;26.50;70.70
11961;DHT22;6040;49.358;11.140;2023-07-22T15:18:19;26.40;72.50
11961;DHT22;6040;49.358;11.140;2023-07-22T15:20:46;26.40;71.30
11961;DHT22;6040;49.358;11.140;2023-07-22T15:23:12;26.30;71.70
11961;DHT22;6040;49.358;11.140;2023-07-22T15:25:39;26.30;72.40
11961;DHT22;6040;49.358;11.140;2023-07-22T15:28:06;26.10;71.50
11961;DHT22;6040;49.358;11.140;2023-07-22T15:30:33;26.10;71.90
11961;DHT22;6040;49.358;11.140;2023-07-22T15:33:01;26.20;71.10
11961;DHT22;6040;49.358;11.140;2023-07-22T15:35:28;26.40;71.30
11961;DHT22;6040;49.358;11.140;2023-07-22T15:37:54;26.50;69.60